createdAt,value
2023-03-29T05:03:07.058Z,30.41
2023-03-29T05:04:08.521Z,30.36
2023-03-29T05:05:07.188Z,30.35
2023-03-29T05:06:07.529Z,30.40
2023-03-29T05:07:07.248Z,30.36
2023-03-29T05:08:08.328Z,30.34
2023-03-29T05:09:08.320Z,30.31
2023-03-29T05:10:08.356Z,30.36
2023-03-29T05:11:08.358Z,30.37
2023-03-29T05:12:08.381Z,30.41
2023-03-29T05:13:08.471Z,30.36
2023-03-29T05:14:08.490Z,30.28
2023-03-29T05:17:07.672Z,30.36
2023-03-29T05:18:07.777Z,30.34
2023-03-29T05:19:07.803Z,30.32
2023-03-29T05:20:08.844Z,30.40
2023-03-29T05:21:08.895Z,30.37
2023-03-29T05:22:08.927Z,30.37
2023-03-29T05:23:08.960Z,30.37
2023-03-29T05:24:09.011Z,30.35
2023-03-29T05:27:08.183Z,30.38
2023-03-29T05:28:08.191Z,30.38
2023-03-29T05:29:09.211Z,30.32
2023-03-29T05:30:09.282Z,30.40
2023-03-29T05:31:09.368Z,30.37
2023-03-29T05:32:09.448Z,30.38
2023-03-29T05:33:09.407Z,30.38
2023-03-29T05:34:09.435Z,30.41
2023-03-29T05:35:09.483Z,30.37
2023-03-29T05:36:09.553Z,30.38
2023-03-29T05:39:08.623Z,30.32
2023-03-29T05:40:09.680Z,30.37
2023-03-29T05:41:09.706Z,30.31
2023-03-29T05:42:09.754Z,30.40
2023-03-29T05:46:08.975Z,30.31
2023-03-29T05:47:09.945Z,30.38
2023-03-29T05:48:08.997Z,30.32
2023-03-29T05:49:10.038Z,30.41
2023-03-29T05:50:10.061Z,30.35
2023-03-29T05:51:10.129Z,30.37
2023-03-29T05:53:09.182Z,30.36
2023-03-29T05:54:10.229Z,30.36
2023-03-29T05:55:10.269Z,30.37
2023-03-29T05:56:10.292Z,30.36
2023-03-29T05:57:10.620Z,30.40
2023-03-29T05:58:10.361Z,30.42
2023-03-29T05:59:10.389Z,30.35
2023-03-29T06:00:10.416Z,30.36
2023-03-29T06:02:09.585Z,30.34
2023-03-29T06:03:19.962Z,30.34
2023-03-29T06:04:10.607Z,30.34
2023-03-29T06:08:09.477Z,30.36
2023-03-29T06:09:09.520Z,30.88
2023-03-29T06:10:10.471Z,30.53
2023-03-29T06:11:10.572Z,30.62
2023-03-29T06:12:10.473Z,30.61
2023-03-29T06:16:09.466Z,30.66
2023-03-29T06:17:10.475Z,30.59
2023-03-29T06:18:10.568Z,30.69
2023-03-29T06:21:09.516Z,30.75
2023-03-29T06:22:09.439Z,30.86
2023-03-29T06:23:10.503Z,30.88
2023-03-29T06:24:10.469Z,30.86
2023-03-29T06:25:10.493Z,30.98
2023-03-29T06:26:10.543Z,31.00
2023-03-29T06:27:10.561Z,31.00
2023-03-29T06:28:10.561Z,31.10
2023-03-29T06:29:10.573Z,31.10
2023-03-29T06:30:10.599Z,31.08
2023-03-29T06:32:09.603Z,31.26
2023-03-29T06:33:09.709Z,31.21
2023-03-29T06:34:10.629Z,31.26
2023-03-29T06:38:09.653Z,31.34
2023-03-29T06:39:10.687Z,31.38
2023-03-29T06:40:10.682Z,31.43
2023-03-29T06:41:10.688Z,31.50
2023-03-29T06:43:09.678Z,31.47
2023-03-29T06:44:10.709Z,31.50
2023-03-29T06:46:09.735Z,31.61
2023-03-29T06:47:10.696Z,31.74
2023-03-29T06:48:10.782Z,31.71
2023-03-29T06:50:09.689Z,31.68
2023-03-29T06:51:10.678Z,31.74
2023-03-29T06:52:10.064Z,31.91
2023-03-29T06:53:10.671Z,32.10
2023-03-29T06:54:09.675Z,32.18
2023-03-29T06:55:10.697Z,31.95
2023-03-29T07:01:09.679Z,32.29
2023-03-29T07:02:10.773Z,32.15
2023-03-29T07:05:09.682Z,32.31
2023-03-29T07:06:09.687Z,32.34
2023-03-29T07:07:10.676Z,32.42
2023-03-29T07:08:10.684Z,32.42
2023-03-29T07:12:09.677Z,32.51
2023-03-29T07:13:10.666Z,32.63
2023-03-29T07:14:10.673Z,32.73
2023-03-29T07:15:10.659Z,32.63
2023-03-29T07:16:10.739Z,32.68
2023-03-29T07:19:09.702Z,32.82
2023-03-29T07:20:09.668Z,32.82
2023-03-29T07:21:10.734Z,32.72
2023-03-29T07:22:10.637Z,32.76
2023-03-29T07:25:09.689Z,32.96
2023-03-29T07:26:10.640Z,32.99
2023-03-29T07:27:10.685Z,33.01
2023-03-29T07:28:10.713Z,33.10
2023-03-29T07:29:10.658Z,33.13
2023-03-29T07:30:11.152Z,33.19
2023-03-29T07:33:09.776Z,33.32
2023-03-29T07:34:10.684Z,33.37
2023-03-29T07:35:10.720Z,33.35
2023-03-29T07:36:10.779Z,33.46
2023-03-29T07:37:09.697Z,33.61
2023-03-29T07:38:10.701Z,33.64
2023-03-29T07:39:10.721Z,33.61
2023-03-29T07:40:10.740Z,33.60
2023-03-29T07:41:10.780Z,33.56
2023-03-29T07:42:10.809Z,33.58
2023-03-29T07:43:10.823Z,33.67
2023-03-29T07:44:09.801Z,34.12
2023-03-29T07:45:10.794Z,34.03
2023-03-29T07:47:10.075Z,35.08
2023-03-29T07:49:09.783Z,34.85
2023-03-29T07:50:10.789Z,35.56
2023-03-29T07:51:10.845Z,35.33
2023-03-29T07:52:11.084Z,35.20
2023-03-29T07:53:10.860Z,35.09
2023-03-29T07:56:09.835Z,34.91
2023-03-29T07:57:10.921Z,35.61
2023-03-29T07:58:10.855Z,36.17
2023-03-29T07:59:10.941Z,35.90
2023-03-29T08:00:11.002Z,35.91
2023-03-29T08:01:13.491Z,36.12
2023-03-29T08:02:10.886Z,35.53
2023-03-29T08:03:09.926Z,35.77
2023-03-29T08:04:10.239Z,35.67
2023-03-29T08:05:10.012Z,35.89
2023-03-29T08:06:10.994Z,35.97
2023-03-29T08:07:11.020Z,35.85
2023-03-29T08:08:11.025Z,35.68
2023-03-29T08:09:11.052Z,35.63
2023-03-29T08:10:11.126Z,35.75
2023-03-29T08:11:11.176Z,35.94
2023-03-29T08:12:11.254Z,35.96
2023-03-29T08:13:11.310Z,35.90
2023-03-29T08:14:11.367Z,35.89
2023-03-29T08:15:11.462Z,35.79
2023-03-29T08:16:11.491Z,35.88
2023-03-29T08:17:11.614Z,36.73
2023-03-29T08:18:11.647Z,36.19
2023-03-29T08:19:11.678Z,36.33
2023-03-29T08:20:11.736Z,36.12
2023-03-29T08:21:11.778Z,36.24
2023-03-29T08:22:11.886Z,35.93
2023-03-29T08:23:11.903Z,33.08
2023-03-29T08:24:11.959Z,32.25
2023-03-29T08:25:12.107Z,31.16
2023-03-29T08:27:11.033Z,31.89
2023-03-29T08:28:12.102Z,33.18
2023-03-29T08:29:12.099Z,31.57
2023-03-29T08:30:11.090Z,32.77
2023-03-29T08:31:11.166Z,31.65
2023-03-29T08:32:11.161Z,31.12
2023-03-29T08:33:12.315Z,32.51
2023-03-29T08:34:11.294Z,33.24
2023-03-29T08:35:12.355Z,31.07
2023-03-29T08:36:12.462Z,30.70
2023-03-29T08:37:12.467Z,30.84
2023-03-29T08:38:12.526Z,32.68
2023-03-29T08:39:12.593Z,31.05
2023-03-29T08:40:12.654Z,31.34
2023-03-29T08:41:11.687Z,30.49
2023-03-29T08:42:13.125Z,30.86
2023-03-29T08:44:11.730Z,30.40
2023-03-29T08:46:11.900Z,31.03
2023-03-29T08:47:17.858Z,30.76
2023-03-29T08:48:12.778Z,30.76
2023-03-29T08:51:11.751Z,30.53
2023-03-29T08:52:11.745Z,30.79
2023-03-29T08:53:12.742Z,30.43
2023-03-29T08:56:11.728Z,30.38
2023-03-29T08:58:12.108Z,33.04
2023-03-29T09:01:11.842Z,33.22
2023-03-29T09:02:12.704Z,33.91
2023-03-29T09:03:12.744Z,33.71
2023-03-29T09:05:11.657Z,34.50
2023-03-29T09:08:11.626Z,34.08
2023-03-29T09:09:11.639Z,34.11
2023-03-29T09:14:11.601Z,34.31
2023-03-29T09:15:11.594Z,34.22
2023-03-29T09:16:12.615Z,34.09
2023-03-29T09:17:11.578Z,34.62
2023-03-29T09:18:12.700Z,34.35
2023-03-29T09:22:11.523Z,34.80
2023-03-29T09:23:12.533Z,34.95
2023-03-29T09:25:11.512Z,35.30
2023-03-29T09:26:12.516Z,35.81
2023-03-29T09:28:11.532Z,35.10
2023-03-29T09:29:12.525Z,35.38
2023-03-29T09:30:12.583Z,35.63
2023-03-29T09:31:12.715Z,35.23
2023-03-29T09:32:12.682Z,36.11
2023-03-29T09:33:12.795Z,36.12
2023-03-29T09:34:14.461Z,35.98
2023-03-29T09:35:12.810Z,35.69
2023-03-29T09:38:11.765Z,35.84
2023-03-29T09:39:11.762Z,35.75
2023-03-29T09:42:11.724Z,36.59
2023-03-29T09:43:12.720Z,36.29
2023-03-29T09:44:24.204Z,36.19
2023-03-29T09:45:12.709Z,37.01
2023-03-29T09:46:12.732Z,36.74
2023-03-29T09:50:22.991Z,36.92
2023-03-29T09:51:12.731Z,36.51
2023-03-29T09:52:12.654Z,36.61
2023-03-29T09:55:11.650Z,36.26
2023-03-29T09:58:11.645Z,35.94
2023-03-29T09:59:12.605Z,35.93
2023-03-29T10:00:12.609Z,35.84
2023-03-29T10:01:12.719Z,35.71
2023-03-29T10:02:12.722Z,35.68
2023-03-29T10:03:11.791Z,35.70
2023-03-29T10:04:12.916Z,35.68
2023-03-29T10:10:12.210Z,35.43
2023-03-29T10:11:12.252Z,35.38
2023-03-29T10:12:13.315Z,35.27
2023-03-29T10:13:13.390Z,35.23
2023-03-29T10:15:23.088Z,35.16
2023-03-29T10:16:13.525Z,35.16
2023-03-29T10:20:12.444Z,35.10
2023-03-29T10:22:12.449Z,35.04
2023-03-29T10:23:13.451Z,35.03
2023-03-29T10:24:13.443Z,35.00
2023-03-29T10:25:13.424Z,34.97
2023-03-29T10:27:12.455Z,34.94
2023-03-29T10:28:12.493Z,34.93
2023-03-29T10:29:13.514Z,34.90
2023-03-29T10:30:13.575Z,34.93
2023-03-29T10:31:15.021Z,34.87
2023-03-29T10:33:12.644Z,34.81
2023-03-29T10:35:12.580Z,34.86
2023-03-29T10:36:13.641Z,34.76
2023-03-29T10:40:12.531Z,34.69
2023-03-29T10:41:13.552Z,34.76
2023-03-29T10:42:13.528Z,34.72
2023-03-29T10:45:12.502Z,34.69
2023-03-29T10:46:13.572Z,34.63
2023-03-29T10:47:13.502Z,34.69
2023-03-29T10:48:13.491Z,34.73
2023-03-29T10:50:12.478Z,34.69
2023-03-29T10:51:13.464Z,34.67
2023-03-29T10:54:12.442Z,34.57
2023-03-29T10:55:12.462Z,34.62
2023-03-29T10:56:13.461Z,34.62
2023-03-29T10:57:13.475Z,34.62
2023-03-29T11:00:12.415Z,34.65
2023-03-29T11:01:13.465Z,34.59
2023-03-29T11:02:13.556Z,34.60
2023-03-29T11:07:12.692Z,34.49
2023-03-29T11:08:13.745Z,34.54
2023-03-29T11:09:13.780Z,34.52
2023-03-29T11:10:13.849Z,34.53
2023-03-29T11:11:13.927Z,34.54
2023-03-29T11:12:16.219Z,34.57
2023-03-29T11:13:13.950Z,34.54
2023-03-29T11:14:13.984Z,34.50
2023-03-29T11:16:13.006Z,34.53
2023-03-29T11:19:12.920Z,34.53
2023-03-29T11:20:12.993Z,34.56
2023-03-29T11:21:13.909Z,34.53
2023-03-29T11:24:12.901Z,34.50
2023-03-29T11:25:13.873Z,34.49
2023-03-29T11:26:12.871Z,34.43
2023-03-29T11:27:12.905Z,34.46
2023-03-29T11:32:12.834Z,34.56
2023-03-29T11:33:13.821Z,34.89
2023-03-29T11:34:13.835Z,34.61
2023-03-29T11:36:12.860Z,34.55
2023-03-29T11:38:12.807Z,34.60
2023-03-29T11:42:13.029Z,34.59
2023-03-29T11:43:14.107Z,34.62
2023-03-29T11:44:14.157Z,34.52
2023-03-29T11:45:13.164Z,34.63
2023-03-29T11:49:13.364Z,34.61
2023-03-29T11:50:14.399Z,34.58
2023-03-29T11:51:14.464Z,34.65
2023-03-29T11:52:14.527Z,34.62
2023-03-29T11:53:14.573Z,34.54
2023-03-29T11:54:14.660Z,34.54
2023-03-29T11:55:14.752Z,34.58
2023-03-29T11:56:14.757Z,34.55
2023-03-29T11:57:14.857Z,34.54
2023-03-29T12:00:14.002Z,34.47
2023-03-29T12:01:15.140Z,34.44
2023-03-29T12:02:14.148Z,34.43
2023-03-29T12:03:14.317Z,34.44
2023-03-29T12:08:14.477Z,34.41
2023-03-29T12:09:16.819Z,34.39
2023-03-29T12:10:15.618Z,34.36
2023-03-29T12:11:15.674Z,34.36
2023-03-29T12:12:15.736Z,34.31
2023-03-29T12:13:15.781Z,34.34
2023-03-29T12:14:15.864Z,34.34
2023-03-29T12:15:15.898Z,34.31
2023-03-29T12:16:16.034Z,34.29
2023-03-29T12:17:16.017Z,34.27
2023-03-29T12:18:16.061Z,34.30
2023-03-29T12:19:16.135Z,34.30
2023-03-29T12:20:16.187Z,34.26
2023-03-29T12:21:16.239Z,34.25
2023-03-29T12:22:16.298Z,34.26
2023-03-29T12:23:16.388Z,34.22
2023-03-29T12:24:16.420Z,34.21
2023-03-29T12:25:17.366Z,34.18
2023-03-29T12:26:16.679Z,34.23
2023-03-29T12:31:15.981Z,34.66
2023-03-29T12:32:17.038Z,34.65
2023-03-29T12:33:17.142Z,34.51
2023-03-29T12:34:16.185Z,34.82
2023-03-29T12:35:16.219Z,34.67
2023-03-29T12:36:17.331Z,34.68
2023-03-29T12:37:17.334Z,34.56
2023-03-29T12:38:17.413Z,34.58
2023-03-29T12:39:17.490Z,34.57
2023-03-29T12:40:17.524Z,34.54
2023-03-29T12:41:17.583Z,34.54
2023-03-29T12:42:17.663Z,34.77
2023-03-29T12:43:17.729Z,34.64
2023-03-29T12:44:17.775Z,34.58
2023-03-29T12:45:17.815Z,34.61
2023-03-29T12:46:17.934Z,34.66
2023-03-29T12:47:17.941Z,34.79
2023-03-29T12:48:18.012Z,34.81
2023-03-29T12:49:20.513Z,34.82
2023-03-29T12:50:17.069Z,34.77
2023-03-29T12:51:18.047Z,34.78
2023-03-29T12:54:17.044Z,34.70
2023-03-29T12:55:18.045Z,34.75
2023-03-29T12:58:17.015Z,34.65
2023-03-29T12:59:18.015Z,34.58
2023-03-29T13:02:17.070Z,34.53
2023-03-29T13:03:18.013Z,34.48
2023-03-29T13:06:16.954Z,34.37
2023-03-29T13:07:17.953Z,34.31
2023-03-29T13:10:16.927Z,34.24
2023-03-29T13:11:17.915Z,34.20
2023-03-29T13:12:17.926Z,34.14
2023-03-29T13:13:17.944Z,34.17
2023-03-29T13:14:18.014Z,34.12
2023-03-29T13:15:18.074Z,34.05
2023-03-29T13:16:18.175Z,34.05
2023-03-29T13:17:19.160Z,34.03
2023-03-29T13:18:18.288Z,33.95
2023-03-29T13:19:18.310Z,33.91
2023-03-29T13:20:18.397Z,33.97
2023-03-29T13:21:18.441Z,33.88
2023-03-29T13:23:17.998Z,33.90
2023-03-29T13:24:18.637Z,33.84
2023-03-29T13:25:17.701Z,33.82
2023-03-29T13:26:18.762Z,33.71
2023-03-29T13:27:18.805Z,33.75
2023-03-29T13:28:18.879Z,33.71
2023-03-29T13:33:18.196Z,33.44
2023-03-29T13:34:19.268Z,33.44
2023-03-29T13:35:19.320Z,33.42
2023-03-29T13:36:18.434Z,33.40
2023-03-29T13:37:18.449Z,33.42
2023-03-29T13:38:19.494Z,33.38
2023-03-29T13:39:19.563Z,33.34
2023-03-29T13:40:19.608Z,33.31
2023-03-29T13:45:18.856Z,33.11
2023-03-29T13:46:19.979Z,33.13
2023-03-29T13:47:19.980Z,33.13
2023-03-29T13:48:20.101Z,33.08
2023-03-29T13:49:20.123Z,33.11
2023-03-29T13:50:20.248Z,33.27
2023-03-29T13:53:19.361Z,33.84
2023-03-29T13:54:20.439Z,33.95
2023-03-29T13:55:20.484Z,33.94
2023-03-29T13:56:20.561Z,33.98
2023-03-29T13:57:20.658Z,34.12
2023-03-29T13:58:20.672Z,34.11
2023-03-29T13:59:20.745Z,34.08
2023-03-29T14:00:21.214Z,34.07
2023-03-29T14:01:20.894Z,34.05
2023-03-29T14:02:20.975Z,34.03
2023-03-29T14:03:20.994Z,34.11
2023-03-29T14:08:20.269Z,33.93
2023-03-29T14:09:21.320Z,33.98
2023-03-29T14:11:20.448Z,33.97
2023-03-29T14:12:21.494Z,33.95
2023-03-29T14:13:21.543Z,33.97
2023-03-29T14:14:21.588Z,33.94
2023-03-29T14:15:21.633Z,34.03
2023-03-29T14:16:20.737Z,34.01
2023-03-29T14:17:21.721Z,34.01
2023-03-29T14:18:21.739Z,33.98
2023-03-29T14:19:21.764Z,33.95
2023-03-29T14:20:21.762Z,33.89
2023-03-29T14:21:21.811Z,33.88
2023-03-29T14:22:21.826Z,33.84
2023-03-29T14:24:20.821Z,33.85
2023-03-29T14:25:20.843Z,33.82
2023-03-29T14:26:21.852Z,33.75
2023-03-29T14:27:21.893Z,33.75
2023-03-29T14:28:21.898Z,33.72
2023-03-29T14:29:24.373Z,33.67
2023-03-29T14:30:21.895Z,33.67
2023-03-29T14:31:21.919Z,33.65
2023-03-29T14:36:20.905Z,33.48
2023-03-29T14:37:21.862Z,33.45
2023-03-29T14:39:20.845Z,33.40
2023-03-29T14:40:21.839Z,33.36
2023-03-29T14:46:20.868Z,33.28
2023-03-29T14:51:20.753Z,33.12
2023-03-29T14:52:21.737Z,33.20
2023-03-29T14:53:21.741Z,33.12
2023-03-29T14:54:20.783Z,33.04
2023-03-29T14:55:21.738Z,33.04
2023-03-29T15:00:20.727Z,32.94
2023-03-29T15:01:21.721Z,32.89
2023-03-29T15:02:21.829Z,32.89
2023-03-29T15:03:20.742Z,32.89
2023-03-29T15:04:21.679Z,32.86
2023-03-29T15:10:20.677Z,32.78
2023-03-29T15:11:21.625Z,32.71
2023-03-29T15:12:20.612Z,32.73
2023-03-29T15:13:21.604Z,32.73
2023-03-29T15:15:20.599Z,32.60
2023-03-29T15:16:21.598Z,32.61
2023-03-29T15:21:20.574Z,32.76
2023-03-29T15:22:21.560Z,32.81
2023-03-29T15:25:20.518Z,33.02
2023-03-29T15:26:21.572Z,32.96
